createdAt,value
2018-08-09T00:02:14.381Z,21.75
2018-08-09T00:04:44.896Z,21.86
2018-08-09T00:07:15.438Z,21.79
2018-08-09T00:09:46.059Z,21.66
2018-08-09T00:12:16.405Z,21.17
2018-08-09T00:14:46.823Z,20.92
2018-08-09T00:17:17.388Z,20.76
2018-08-09T00:19:47.948Z,20.69
2018-08-09T00:22:18.558Z,20.68
2018-08-09T00:24:49.162Z,20.92
2018-08-09T00:27:21.575Z,20.88
2018-08-09T00:29:52.148Z,20.86
2018-08-09T00:32:22.757Z,20.91
2018-08-09T00:34:53.237Z,20.93
2018-08-09T00:37:23.603Z,20.98
2018-08-09T00:39:54.161Z,20.90
2018-08-09T00:42:24.771Z,20.90
2018-08-09T00:44:55.251Z,20.86
2018-08-09T00:47:25.666Z,20.93
2018-08-09T00:49:56.016Z,20.90
2018-08-09T00:52:26.482Z,20.83
2018-08-09T00:54:56.964Z,20.90
2018-08-09T00:57:27.562Z,20.93
2018-08-09T00:59:57.944Z,20.95
2018-08-09T01:02:28.325Z,20.99
2018-08-09T01:04:58.802Z,21.09
2018-08-09T01:07:29.381Z,21.03
2018-08-09T01:09:59.875Z,20.88
2018-08-09T01:12:30.453Z,20.87
2018-08-09T01:15:00.944Z,20.92
2018-08-09T01:17:31.536Z,20.77
2018-08-09T01:20:02.116Z,20.78
2018-08-09T01:22:32.783Z,20.71
2018-08-09T01:25:03.488Z,20.80
2018-08-09T01:27:34.280Z,20.89
2018-08-09T01:30:05.135Z,20.68
2018-08-09T01:32:35.754Z,20.72
2018-08-09T01:35:06.120Z,20.53
2018-08-09T01:37:36.724Z,20.42
2018-08-09T01:40:07.874Z,20.41
2018-08-09T01:42:54.805Z,20.41
2018-08-09T01:45:25.242Z,20.48
2018-08-09T01:47:55.810Z,20.49
2018-08-09T01:50:26.305Z,20.51
2018-08-09T01:52:56.895Z,20.32
2018-08-09T01:55:27.473Z,20.23
2018-08-09T01:57:58.139Z,20.01
2018-08-09T02:00:28.759Z,19.97
2018-08-09T02:02:59.349Z,19.92
2018-08-09T02:05:29.809Z,19.53
2018-08-09T02:08:00.225Z,19.33
2018-08-09T02:10:30.978Z,19.23
2018-08-09T02:13:01.455Z,19.20
2018-08-09T02:15:31.927Z,19.20
2018-08-09T02:18:02.515Z,19.07
2018-08-09T02:20:33.123Z,19.01
2018-08-09T02:23:03.700Z,18.91
2018-08-09T02:25:34.284Z,18.87
2018-08-09T02:28:04.747Z,18.97
2018-08-09T02:30:35.362Z,19.27
2018-08-09T02:33:06.752Z,19.53
2018-08-09T02:35:37.397Z,19.53
2018-08-09T02:38:08.039Z,19.38
2018-08-09T02:40:38.578Z,19.31
2018-08-09T02:43:09.343Z,19.38
2018-08-09T02:45:39.872Z,19.47
2018-08-09T02:48:10.456Z,19.48
2018-08-09T02:50:41.057Z,19.41
2018-08-09T02:53:11.398Z,19.37
2018-08-09T02:55:42.001Z,19.37
2018-08-09T02:58:12.603Z,19.23
2018-08-09T03:00:43.256Z,19.23
2018-08-09T03:03:13.828Z,19.13
2018-08-09T03:05:44.235Z,19.06
2018-08-09T03:08:14.637Z,19.11
2018-08-09T03:10:44.997Z,19.27
2018-08-09T03:13:15.683Z,19.25
2018-08-09T03:15:46.270Z,19.22
2018-08-09T03:18:16.965Z,19.45
2018-08-09T03:20:47.340Z,19.42
2018-08-09T03:23:17.575Z,19.36
2018-08-09T03:25:47.883Z,19.46
2018-08-09T03:28:18.363Z,19.61
2018-08-09T03:30:48.882Z,19.55
2018-08-09T03:33:19.432Z,19.68
2018-08-09T03:35:50.037Z,19.77
2018-08-09T03:38:20.492Z,19.74
2018-08-09T03:40:50.975Z,19.70
2018-08-09T03:43:21.346Z,19.79
2018-08-09T03:45:51.946Z,19.85
2018-08-09T03:48:22.455Z,19.85
2018-08-09T03:50:52.918Z,19.82
2018-08-09T03:53:23.382Z,20.01
2018-08-09T03:55:53.779Z,20.11
2018-08-09T03:58:24.224Z,20.07
2018-08-09T04:00:54.611Z,19.79
2018-08-09T04:03:25.195Z,19.46
2018-08-09T04:05:55.709Z,19.46
2018-08-09T04:08:26.311Z,19.46
2018-08-09T04:10:56.878Z,19.57
2018-08-09T04:13:27.536Z,19.63
2018-08-09T04:15:58.150Z,19.63
2018-08-09T04:18:28.726Z,19.46
2018-08-09T04:20:59.410Z,19.61
2018-08-09T04:23:29.869Z,19.78
2018-08-09T04:26:00.622Z,19.61
2018-08-09T04:28:31.139Z,19.80
2018-08-09T04:31:01.568Z,19.85
2018-08-09T04:33:31.952Z,19.94
2018-08-09T04:36:02.443Z,19.90
2018-08-09T04:38:32.927Z,20.08
2018-08-09T04:41:03.533Z,20.27
2018-08-09T04:43:34.106Z,20.84
2018-08-09T04:46:04.655Z,20.80
2018-08-09T04:48:35.161Z,21.08
2018-08-09T04:51:05.742Z,21.24
2018-08-09T04:53:36.315Z,21.28
2018-08-09T04:56:06.867Z,20.99
2018-08-09T04:58:37.315Z,21.15
2018-08-09T05:01:07.752Z,20.77
2018-08-09T05:03:38.248Z,20.99
2018-08-09T05:06:08.846Z,20.99
2018-08-09T05:08:39.344Z,21.22
2018-08-09T05:11:09.796Z,21.46
2018-08-09T05:13:40.197Z,21.20
2018-08-09T05:16:10.867Z,21.03
2018-08-09T05:18:41.447Z,20.82
2018-08-09T05:21:12.760Z,20.90
2018-08-09T05:23:43.141Z,20.63
2018-08-09T05:26:13.708Z,20.79
2018-08-09T05:28:44.550Z,21.20
2018-08-09T05:31:15.315Z,21.25
2018-08-09T05:33:45.935Z,21.64
2018-08-09T05:36:16.523Z,22.25
2018-08-09T05:38:46.950Z,22.34
2018-08-09T05:41:17.442Z,22.92
2018-08-09T05:43:47.915Z,22.53
2018-08-09T05:46:18.447Z,22.84
2018-08-09T05:48:48.883Z,23.79
2018-08-09T05:51:19.419Z,23.78
2018-08-09T05:53:49.828Z,24.32
2018-08-09T05:56:20.221Z,24.67
2018-08-09T05:58:50.626Z,23.92
2018-08-09T06:01:21.105Z,24.39
2018-08-09T06:03:51.562Z,24.62
2018-08-09T06:06:22.254Z,24.63
2018-08-09T06:08:52.825Z,24.09
2018-08-09T06:11:23.508Z,25.11
2018-08-09T06:13:55.953Z,24.86
2018-08-09T06:16:33.084Z,26.01
2018-08-09T06:19:03.685Z,25.91
2018-08-09T06:21:34.307Z,27.26
2018-08-09T06:24:04.840Z,26.23
2018-08-09T06:26:35.347Z,26.71
2018-08-09T06:29:05.800Z,26.50
2018-08-09T06:31:36.461Z,26.64
2018-08-09T06:34:06.863Z,27.09
2018-08-09T06:36:37.461Z,26.31
2018-08-09T06:39:09.990Z,26.43
2018-08-09T06:41:40.636Z,26.88
2018-08-09T06:44:11.304Z,27.17
2018-08-09T06:46:41.910Z,27.52
2018-08-09T06:49:12.507Z,28.15
2018-08-09T06:51:43.125Z,27.35
2018-08-09T06:54:13.696Z,27.00
2018-08-09T06:56:44.385Z,27.52
2018-08-09T06:59:14.871Z,27.58
2018-08-09T07:01:45.459Z,27.79
2018-08-09T07:04:16.102Z,28.05
2018-08-09T07:06:46.615Z,27.26
2018-08-09T07:09:16.977Z,26.68
2018-08-09T07:11:47.496Z,27.59
2018-08-09T07:14:18.052Z,28.00
2018-08-09T07:16:48.605Z,27.63
2018-08-09T07:19:19.127Z,28.21
2018-08-09T07:21:49.603Z,29.22
2018-08-09T07:24:19.985Z,29.38
2018-08-09T07:26:50.560Z,28.64
2018-08-09T07:29:21.065Z,28.40
2018-08-09T07:31:51.767Z,27.47
2018-08-09T07:34:22.200Z,27.49
2018-08-09T07:36:52.796Z,27.86
2018-08-09T07:39:23.441Z,27.79
2018-08-09T07:41:54.166Z,27.79
2018-08-09T07:44:24.755Z,28.92
2018-08-09T07:46:55.389Z,28.52
2018-08-09T07:49:25.840Z,28.48
2018-08-09T07:51:56.419Z,28.81
2018-08-09T07:54:27.020Z,29.02
2018-08-09T07:56:57.642Z,28.89
2018-08-09T07:59:28.059Z,29.05
2018-08-09T08:01:58.456Z,29.11
2018-08-09T08:04:28.881Z,29.75
2018-08-09T08:06:59.304Z,29.81
2018-08-09T08:09:29.792Z,29.56
2018-08-09T08:12:00.372Z,29.44
2018-08-09T08:14:30.851Z,29.27
2018-08-09T08:17:01.447Z,29.47
2018-08-09T08:19:32.039Z,29.61
2018-08-09T08:22:02.607Z,29.24
2018-08-09T08:24:32.989Z,29.08
2018-08-09T08:27:03.479Z,29.80
2018-08-09T08:29:33.752Z,30.07
2018-08-09T08:32:04.215Z,29.46
2018-08-09T08:34:34.868Z,29.74
2018-08-09T08:37:05.823Z,30.18
2018-08-09T08:39:36.204Z,29.93
2018-08-09T08:42:06.621Z,29.52
2018-08-09T08:44:37.169Z,30.20
2018-08-09T08:47:08.201Z,30.28
2018-08-09T08:49:38.722Z,29.99
2018-08-09T08:52:09.315Z,29.61
2018-08-09T08:54:39.789Z,29.90
2018-08-09T08:57:10.884Z,30.15
2018-08-09T08:59:41.267Z,29.99
2018-08-09T09:02:11.854Z,29.95
2018-08-09T09:04:42.207Z,29.96
2018-08-09T09:07:12.743Z,29.96
2018-08-09T09:09:43.274Z,29.87
2018-08-09T09:12:13.874Z,30.25
2018-08-09T09:14:44.436Z,30.34
2018-08-09T09:17:15.035Z,30.02
2018-08-09T09:19:45.638Z,29.55
2018-08-09T09:22:16.117Z,29.23
2018-08-09T09:24:46.548Z,29.20
2018-08-09T09:27:17.119Z,29.91
2018-08-09T09:29:47.538Z,29.94
2018-08-09T09:32:18.106Z,29.98
2018-08-09T09:34:48.616Z,29.84
2018-08-09T09:37:19.103Z,30.06
2018-08-09T09:39:49.456Z,29.68
2018-08-09T09:42:19.969Z,29.54
2018-08-09T09:44:50.432Z,29.87
2018-08-09T09:47:21.001Z,29.78
2018-08-09T09:49:51.556Z,29.87
2018-08-09T09:52:22.041Z,29.95
2018-08-09T09:54:52.399Z,30.00
2018-08-09T09:57:22.947Z,30.01
2018-08-09T09:59:53.450Z,30.27
2018-08-09T10:02:24.121Z,29.93
2018-08-09T10:04:54.712Z,29.83
2018-08-09T10:07:25.356Z,30.65
2018-08-09T10:09:55.887Z,30.96
2018-08-09T10:12:26.467Z,30.89
2018-08-09T10:14:57.054Z,31.34
2018-08-09T10:17:27.395Z,30.86
2018-08-09T10:19:57.680Z,31.69
2018-08-09T10:22:28.262Z,31.74
2018-08-09T10:24:58.998Z,31.05
2018-08-09T10:27:29.653Z,31.25
2018-08-09T10:30:00.252Z,31.68
2018-08-09T10:32:30.851Z,31.96
2018-08-09T10:35:01.552Z,31.54
2018-08-09T10:37:32.203Z,31.53
2018-08-09T10:40:02.673Z,32.01
2018-08-09T10:42:33.134Z,32.32
2018-08-09T10:45:03.634Z,31.86
2018-08-09T10:47:34.219Z,32.32
2018-08-09T10:50:04.853Z,31.07
2018-08-09T10:52:35.549Z,31.09
2018-08-09T10:55:06.523Z,31.49
2018-08-09T10:57:37.096Z,31.12
2018-08-09T11:00:10.930Z,31.29
2018-08-09T11:02:41.524Z,31.32
2018-08-09T11:05:12.108Z,30.78
2018-08-09T11:07:43.392Z,31.04
2018-08-09T11:10:13.967Z,31.03
2018-08-09T11:12:44.466Z,31.41
2018-08-09T11:15:14.865Z,31.46
2018-08-09T11:17:45.348Z,32.28
2018-08-09T11:20:15.837Z,32.54
2018-08-09T11:22:46.548Z,31.88
2018-08-09T11:25:17.006Z,32.37
2018-08-09T11:27:47.234Z,32.09
2018-08-09T11:30:17.868Z,31.92
2018-08-09T11:32:48.344Z,31.80
2018-08-09T11:35:18.972Z,32.00
2018-08-09T11:37:50.831Z,31.97
2018-08-09T11:40:21.277Z,31.68
2018-08-09T11:42:51.807Z,31.51
2018-08-09T11:45:22.383Z,31.94
2018-08-09T11:47:53.113Z,32.04
2018-08-09T11:50:23.537Z,32.21
2018-08-09T11:52:54.042Z,32.38
2018-08-09T11:55:24.715Z,32.43
2018-08-09T11:57:55.481Z,32.38
2018-08-09T12:00:26.188Z,32.40
2018-08-09T12:02:56.775Z,32.68
2018-08-09T12:05:27.472Z,32.65
2018-08-09T12:07:57.979Z,32.63
2018-08-09T12:10:28.564Z,32.68
2018-08-09T12:12:59.225Z,32.38
2018-08-09T12:15:29.860Z,32.31
2018-08-09T12:18:00.570Z,32.74
2018-08-09T12:20:31.000Z,32.95
2018-08-09T12:23:01.609Z,32.95
2018-08-09T12:25:32.277Z,32.56
2018-08-09T12:28:02.856Z,32.52
2018-08-09T12:30:33.443Z,32.22
2018-08-09T12:33:04.146Z,32.07
2018-08-09T12:35:34.751Z,32.57
2018-08-09T12:38:05.418Z,32.79
2018-08-09T12:40:35.871Z,32.54
2018-08-09T12:43:06.875Z,32.73
2018-08-09T12:45:37.530Z,32.89
2018-08-09T12:48:08.085Z,32.85
2018-08-09T12:50:38.760Z,33.11
2018-08-09T12:53:09.451Z,33.17
2018-08-09T12:55:40.067Z,33.69
2018-08-09T12:58:10.727Z,33.59
2018-08-09T13:00:41.452Z,33.39
2018-08-09T13:03:12.136Z,33.34
2018-08-09T13:05:42.921Z,33.80
2018-08-09T13:08:13.315Z,33.98
2018-08-09T13:10:43.910Z,33.87
2018-08-09T13:13:14.323Z,34.31
2018-08-09T13:15:47.968Z,34.11
2018-08-09T13:18:18.557Z,34.68
2018-08-09T13:20:49.115Z,34.55
2018-08-09T13:23:19.704Z,34.34
2018-08-09T13:25:50.409Z,34.08
2018-08-09T13:28:21.095Z,34.51
2018-08-09T13:30:51.580Z,34.83
2018-08-09T13:33:22.160Z,34.61
2018-08-09T13:35:52.572Z,34.58
2018-08-09T13:38:23.019Z,34.39
2018-08-09T13:40:53.589Z,34.64
2018-08-09T13:43:24.176Z,34.54
2018-08-09T13:45:54.678Z,34.04
2018-08-09T13:48:32.733Z,34.35
2018-08-09T13:51:03.091Z,33.96
2018-08-09T13:53:33.718Z,33.70
2018-08-09T13:56:04.330Z,33.89
2018-08-09T13:58:34.865Z,33.80
2018-08-09T14:01:05.467Z,34.04
2018-08-09T14:03:35.926Z,34.29
2018-08-09T14:06:06.519Z,34.23
2018-08-09T14:08:37.195Z,34.03
2018-08-09T14:11:07.816Z,34.18
2018-08-09T14:13:38.471Z,33.93
2018-08-09T14:16:10.271Z,33.57
2018-08-09T14:18:40.951Z,33.61
2018-08-09T14:21:12.467Z,33.31
2018-08-09T14:23:43.155Z,33.77
2018-08-09T14:26:14.020Z,33.61
2018-08-09T14:28:44.523Z,33.70
2018-08-09T14:31:15.104Z,33.71
2018-08-09T14:33:45.798Z,33.48
2018-08-09T14:36:16.319Z,33.38
2018-08-09T14:38:46.908Z,33.34
2018-08-09T14:41:17.475Z,33.22
2018-08-09T14:43:48.148Z,33.13
2018-08-09T14:46:18.631Z,33.14
2018-08-09T14:48:49.201Z,33.13
2018-08-09T14:51:19.780Z,33.22
2018-08-09T14:53:50.376Z,33.14
2018-08-09T14:56:21.068Z,33.21
2018-08-09T14:58:51.753Z,33.04
2018-08-09T15:01:22.153Z,33.12
2018-08-09T15:03:52.655Z,33.01
2018-08-09T15:06:23.303Z,33.02
2018-08-09T15:08:53.932Z,33.03
2018-08-09T15:11:25.094Z,32.96
2018-08-09T15:13:55.813Z,32.96
2018-08-09T15:16:26.497Z,32.87
2018-08-09T15:18:57.071Z,32.80
2018-08-09T15:21:27.671Z,32.61
2018-08-09T15:23:58.302Z,32.53
2018-08-09T15:26:28.724Z,32.43
2018-08-09T15:28:59.231Z,32.39
2018-08-09T15:31:29.699Z,32.31
2018-08-09T15:34:00.194Z,31.45
2018-08-09T15:36:30.754Z,27.92
2018-08-09T15:39:01.343Z,23.79
2018-08-09T15:41:31.942Z,23.44
2018-08-09T15:44:02.720Z,23.88
2018-08-09T15:46:33.387Z,24.43
2018-08-09T15:49:03.936Z,24.47
2018-08-09T15:51:34.573Z,24.30
2018-08-09T15:54:05.272Z,24.28
2018-08-09T15:56:35.952Z,24.32
2018-08-09T15:59:06.645Z,24.08
2018-08-09T16:01:37.322Z,24.12
2018-08-09T16:04:07.800Z,23.89
2018-08-09T16:06:38.203Z,23.68
2018-08-09T16:09:13.753Z,23.66
2018-08-09T16:11:44.290Z,23.63
2018-08-09T16:14:15.008Z,23.77
2018-08-09T16:16:45.541Z,23.71
2018-08-09T16:19:16.095Z,23.66
2018-08-09T16:21:46.709Z,23.91
2018-08-09T16:24:17.191Z,23.93
2018-08-09T16:26:47.755Z,23.88
2018-08-09T16:29:18.243Z,23.88
2018-08-09T16:31:48.784Z,23.91
2018-08-09T16:34:19.459Z,23.82
2018-08-09T16:36:49.997Z,23.62
2018-08-09T16:39:20.467Z,23.29
2018-08-09T16:41:51.181Z,23.04
2018-08-09T16:44:22.084Z,22.77
2018-08-09T16:46:52.703Z,22.77
2018-08-09T16:49:23.431Z,22.64
2018-08-09T16:51:54.015Z,22.32
2018-08-09T16:54:24.717Z,22.47
2018-08-09T16:56:55.397Z,22.29
2018-08-09T16:59:26.085Z,22.30
2018-08-09T17:01:56.816Z,22.27
2018-08-09T17:04:27.542Z,22.23
2018-08-09T17:06:58.143Z,22.31
2018-08-09T17:09:28.800Z,22.36
2018-08-09T17:11:59.411Z,22.30
2018-08-09T17:14:29.957Z,22.12
2018-08-09T17:17:00.585Z,22.24
2018-08-09T17:19:31.173Z,22.28
2018-08-09T17:22:01.612Z,22.22
2018-08-09T17:24:32.121Z,21.96
2018-08-09T17:27:02.643Z,22.03
2018-08-09T17:29:33.331Z,21.85
2018-08-09T17:32:03.864Z,21.80
2018-08-09T17:34:34.499Z,21.57
2018-08-09T17:37:05.552Z,21.68
2018-08-09T17:39:36.181Z,21.71
2018-08-09T17:42:06.728Z,21.65
2018-08-09T17:44:37.449Z,21.78
2018-08-09T17:47:08.017Z,21.85
2018-08-09T17:49:39.043Z,21.77
2018-08-09T17:52:09.589Z,21.73
2018-08-09T17:54:40.171Z,21.66
2018-08-09T17:57:11.001Z,21.77
2018-08-09T17:59:41.628Z,21.92
2018-08-09T18:02:12.231Z,22.11
2018-08-09T18:04:42.923Z,22.05
2018-08-09T18:07:13.480Z,22.13
2018-08-09T18:09:44.188Z,22.00
2018-08-09T18:12:15.593Z,22.17
2018-08-09T18:14:46.679Z,22.13
2018-08-09T18:17:17.205Z,22.22
2018-08-09T18:19:47.721Z,22.06
2018-08-09T18:22:49.888Z,22.05
2018-08-09T18:25:20.681Z,22.16
2018-08-09T18:27:54.842Z,22.08
2018-08-09T18:30:25.521Z,22.08
2018-08-09T18:32:56.277Z,22.06
2018-08-09T18:35:26.997Z,22.18
2018-08-09T18:37:57.550Z,22.15
2018-08-09T18:40:28.793Z,22.13
2018-08-09T18:42:59.483Z,22.12
2018-08-09T18:45:30.120Z,22.01
2018-08-09T18:48:00.700Z,22.07
2018-08-09T18:50:31.863Z,21.98
2018-08-09T18:53:02.427Z,21.85
2018-08-09T18:55:33.081Z,21.85
2018-08-09T18:58:03.703Z,21.88
2018-08-09T19:00:34.383Z,21.78
2018-08-09T19:03:05.044Z,21.62
2018-08-09T19:05:36.170Z,21.59
2018-08-09T19:08:06.824Z,21.66
2018-08-09T19:10:37.417Z,21.74
2018-08-09T19:13:08.068Z,21.79
2018-08-09T19:15:38.457Z,21.71
2018-08-09T19:18:09.263Z,21.65
2018-08-09T19:20:39.780Z,21.71
2018-08-09T19:23:10.222Z,21.65
2018-08-09T19:25:40.832Z,21.52
2018-08-09T19:28:11.425Z,21.54
2018-08-09T19:30:42.107Z,21.50
2018-08-09T19:33:12.613Z,21.47
2018-08-09T19:35:43.356Z,21.55
2018-08-09T19:38:13.947Z,21.56
2018-08-09T19:40:44.588Z,21.55
2018-08-09T19:43:15.300Z,21.50
2018-08-09T19:45:45.864Z,21.40
2018-08-09T19:48:16.515Z,21.35
2018-08-09T19:50:47.152Z,21.38
2018-08-09T19:53:17.564Z,21.32
2018-08-09T19:55:55.280Z,21.31
2018-08-09T19:58:25.862Z,21.46
2018-08-09T20:00:56.463Z,21.29
2018-08-09T20:03:27.132Z,21.38
2018-08-09T20:08:27.269Z,21.27
2018-08-09T20:10:57.903Z,21.19
2018-08-09T20:13:28.443Z,21.19
2018-08-09T20:15:59.067Z,21.19
2018-08-09T20:18:29.623Z,21.32
2018-08-09T20:20:59.904Z,21.26
2018-08-09T20:23:30.097Z,21.20
2018-08-09T20:26:00.297Z,21.11
2018-08-09T20:28:30.680Z,21.11
2018-08-09T20:31:01.351Z,21.04
2018-08-09T20:33:31.803Z,21.12
2018-08-09T20:36:02.396Z,21.07
2018-08-09T20:38:33.077Z,21.13
2018-08-09T20:41:03.625Z,21.06
2018-08-09T20:43:34.134Z,21.05
2018-08-09T20:46:04.777Z,21.16
2018-08-09T20:48:35.279Z,21.15
2018-08-09T20:51:05.905Z,21.14
2018-08-09T20:53:36.460Z,21.15
2018-08-09T20:56:07.219Z,21.14
2018-08-09T20:58:37.837Z,21.14
2018-08-09T21:01:08.407Z,21.26
2018-08-09T21:03:39.051Z,21.18
2018-08-09T21:06:09.721Z,21.10
2018-08-09T21:08:40.815Z,21.22
2018-08-09T21:11:11.500Z,21.19
2018-08-09T21:13:42.133Z,20.98
2018-08-09T21:16:12.699Z,21.05
2018-08-09T21:18:43.270Z,21.09
2018-08-09T21:21:13.880Z,21.05
2018-08-09T21:23:44.443Z,21.04
2018-08-09T21:26:15.052Z,21.12
2018-08-09T21:28:45.697Z,21.08
2018-08-09T21:31:23.684Z,21.06
2018-08-09T21:33:54.459Z,20.93
2018-08-09T21:36:25.045Z,20.89
2018-08-09T21:38:55.553Z,20.94
2018-08-09T21:41:26.041Z,20.85
2018-08-09T21:43:56.614Z,20.95
2018-08-09T21:46:27.192Z,20.91
2018-08-09T21:48:57.807Z,20.86
2018-08-09T21:51:28.360Z,20.82
2018-08-09T21:53:58.920Z,20.89
2018-08-09T21:56:29.426Z,20.91
2018-08-09T21:59:00.096Z,20.94
2018-08-09T22:01:30.697Z,20.98
2018-08-09T22:04:01.409Z,20.82
2018-08-09T22:06:36.835Z,20.74
2018-08-09T22:09:15.413Z,20.87
2018-08-09T22:11:50.977Z,20.91
2018-08-09T22:14:26.401Z,20.93
2018-08-09T22:17:01.981Z,20.92
2018-08-09T22:19:37.545Z,21.09
2018-08-09T22:22:11.274Z,21.03
2018-08-09T22:24:41.866Z,21.06
2018-08-09T22:27:12.382Z,21.23
2018-08-09T22:29:42.896Z,21.17
2018-08-09T22:32:13.551Z,21.22
2018-08-09T22:34:44.151Z,21.34
2018-08-09T22:37:14.705Z,21.27
2018-08-09T22:39:45.307Z,21.23
2018-08-09T22:42:15.967Z,21.14
2018-08-09T22:44:46.508Z,21.21
2018-08-09T22:47:17.523Z,21.22
2018-08-09T22:49:47.865Z,21.05
2018-08-09T22:52:18.280Z,21.14
2018-08-09T22:54:48.875Z,21.07
2018-08-09T22:57:19.609Z,21.04
2018-08-09T22:59:50.196Z,20.91
2018-08-09T23:02:20.896Z,20.97
2018-08-09T23:04:51.467Z,20.85
2018-08-09T23:07:22.134Z,20.79
2018-08-09T23:09:52.562Z,20.72
2018-08-09T23:12:23.039Z,20.63
2018-08-09T23:14:53.396Z,20.73
2018-08-09T23:17:23.984Z,20.74
2018-08-09T23:19:54.555Z,20.74
2018-08-09T23:22:24.941Z,20.53
2018-08-09T23:24:55.639Z,20.64
2018-08-09T23:27:26.322Z,20.56
2018-08-09T23:29:56.909Z,20.54
2018-08-09T23:32:27.688Z,20.58
2018-08-09T23:34:58.382Z,20.49
2018-08-09T23:37:28.796Z,20.52
2018-08-09T23:39:59.242Z,20.68
2018-08-09T23:42:29.720Z,20.56
2018-08-09T23:45:00.280Z,20.62
2018-08-09T23:47:30.892Z,20.54
2018-08-09T23:50:01.632Z,20.55
2018-08-09T23:52:32.267Z,20.60
2018-08-09T23:55:02.860Z,20.51
2018-08-09T23:57:33.600Z,20.40
